Aérodrome :
LOGIN :

S'inscrire | Disclaimer

   EN    FR    IT 

 










Légende :    VFR   VFR Marginal   IFR   IFR Intensif   IFR Très Intensif
Visi : 
Plafond : 
>= 8 km
>= 3000ft
5 à 8 km
1000 à 3000 ft
1500m à 5 km
500 à 1000 ft
800 à 1500m
200 à 500 ft
< 800m
< 200 ft
Symboles :   Orages  Brouillard  Fortes neiges  Fortes précipitations  Vent > 20 kt
SIGMETs :   Divers  Orages  Givrage  Turbulence  Onde Orograph.  Cendres Volcan.







- Altitude de l'aérodrome : 17 ft
- Code IATA : MHQ


EFMA - Mariehamn

DERNIER METAR :
  • 211120Z AUTO 21008KT 190V250 9999 OVC007 06/04 Q1012

METARs EXPIRÉS :
  • 211050Z AUTO 21007KT 190V260 9999 OVC009 05/03 Q1013
  • 211020Z AUTO 20009KT 9999 OVC010 04/02 Q1013
  • 210950Z AUTO 23008KT 170V270 9999 SCT013 OVC057 06/03 Q1013
  • 210920Z AUTO 24008KT 200V290 9999 OVC049 06/03 Q1014
  • 210850Z AUTO 24006KT 200V310 9999 OVC047 05/02 Q1014
  • 210820Z AUTO 23008KT 200V280 9999 OVC045 04/01 Q1014

TAF TAF EFMA
Valide du 21 à 09h jusqu'au 21 à 18h UTC


210829Z 2109/2118 22012KT 9999 BKN045
BECMG 2110/2112 6000 -DZ BKN006
BECMG 2113/2115 29013KT 9999 SCT012 BKN060
PROB30 2117/2118 32015G25KT
Pas de NOTAMs connus pour ce terrain.



MET'MAP, la Météo Aéronautique d'un coup d'oeil ! - Copyright ORBIFLY Décembre 2007 - Disclaimer

ORBIFLY MET'MAP TEAM :

Programmation & Développement : Alexandra Zaïnal
Conception & Développement : Baudouin d'Aumeries
Co-Programmation & Développement : Marc-Olivier Méhu
Soutien technique & logistique : Manuel Goepfert

Contact : metmap@orbifly.com




SOURCES & CREDITS :

   NOAA